Time;durP1;ratioP1;P1;durP2;ratioP2;P2;SDS_P1;SDS_P2;PMS_P1;PMS_P2;Temp;Humidity;BMP_temperature;BMP_pressure;BME280_temperature;BME280_humidity;BME280_pressure;Samples;Min_cycle;Max_cycle;Signal;HPM_P1;HPM_P2
2022/06/05 00:02:40;;;;;;;0.60;0.60;;;20.70;57.80;;;;;;5082568;28;20035;-53
2022/06/05 00:05:17;;;;;;;0.82;0.82;;;20.70;58.30;;;;;;5063358;28;20384;-52
2022/06/05 00:08:05;;;;;;;0.80;0.80;;;20.70;59.30;;;;;;5065710;28;20508;-55
2022/06/05 00:10:47;;;;;;;0.67;0.67;;;20.70;59.40;;;;;;5065974;28;20416;-55
2022/06/05 00:13:45;;;;;;;1.40;0.80;;;20.70;59.30;;;;;;5065495;28;20257;-56
2022/06/05 00:16:16;;;;;;;0.60;0.60;;;20.60;59.20;;;;;;5068850;28;20111;-57
2022/06/05 00:18:45;;;;;;;0.65;0.60;;;20.70;59.20;;;;;;5083675;28;20029;-56
2022/06/05 00:21:11;;;;;;;0.93;0.80;;;20.70;59.10;;;;;;5083377;28;20072;-54
2022/06/05 00:23:38;;;;;;;0.80;0.80;;;20.70;59.10;;;;;;5084419;28;20084;-55
2022/06/05 00:26:19;;;;;;;0.80;0.80;;;20.70;59.00;;;;;;5082878;28;20051;-56
2022/06/05 00:28:54;;;;;;;0.70;0.70;;;20.70;58.90;;;;;;5084012;28;20402;-56
2022/06/05 00:31:41;;;;;;;0.70;0.70;;;20.70;58.80;;;;;;5081838;28;20043;-56
2022/06/05 00:34:07;;;;;;;0.80;0.80;;;20.70;58.70;;;;;;5083382;28;20024;-53
2022/06/05 00:36:44;;;;;;;0.80;0.80;;;20.80;58.60;;;;;;5082490;28;20036;-54
2022/06/05 00:39:36;;;;;;;1.05;0.80;;;20.80;58.50;;;;;;5083271;28;20039;-54
2022/06/05 00:42:07;;;;;;;0.60;0.60;;;20.80;58.40;;;;;;5040589;28;20598;-55
2022/06/05 00:44:56;;;;;;;0.70;0.70;;;20.80;58.30;;;;;;5064555;28;20038;-53
2022/06/05 00:47:28;;;;;;;0.60;0.60;;;20.80;58.20;;;;;;5063083;28;20047;-52
2022/06/05 00:50:05;;;;;;;0.75;0.70;;;20.90;58.10;;;;;;5085139;28;20033;-55
2022/06/05 00:52:32;;;;;;;0.80;0.70;;;20.90;58.00;;;;;;5082902;28;20032;-56
2022/06/05 00:54:59;;;;;;;1.05;0.63;;;20.90;57.90;;;;;;5078595;28;20024;-56
2022/06/05 00:57:32;;;;;;;0.70;0.70;;;20.90;57.70;;;;;;5083030;28;20082;-56
2022/06/05 01:00:03;;;;;;;0.80;0.80;;;20.90;57.70;;;;;;5082894;28;20029;-57
2022/06/05 01:02:29;;;;;;;0.57;0.57;;;20.90;57.60;;;;;;5081753;28;20032;-55
2022/06/05 01:04:56;;;;;;;0.90;0.70;;;21.00;57.50;;;;;;5065077;28;20025;-54
2022/06/05 01:07:22;;;;;;;1.08;0.60;;;21.00;57.40;;;;;;5065006;28;20485;-55
2022/06/05 01:09:48;;;;;;;0.55;0.55;;;21.00;57.30;;;;;;5082191;28;20033;-55
2022/06/05 01:12:39;;;;;;;0.60;0.60;;;21.00;57.20;;;;;;5060652;28;20024;-56
2022/06/05 01:15:18;;;;;;;0.60;0.50;;;21.10;57.10;;;;;;5081675;28;20025;-53
2022/06/05 01:17:53;;;;;;;0.60;0.60;;;21.10;57.00;;;;;;5082815;28;20039;-57
2022/06/05 01:20:48;;;;;;;0.57;0.52;;;21.10;56.90;;;;;;5079050;28;20025;-55
2022/06/05 01:23:38;;;;;;;0.73;0.55;;;21.10;56.80;;;;;;5082622;28;20056;-56
2022/06/05 01:26:32;;;;;;;0.45;0.45;;;21.10;56.70;;;;;;5062554;28;20040;-55
2022/06/05 01:29:18;;;;;;;0.63;0.50;;;21.10;56.60;;;;;;5080128;28;20032;-56
2022/06/05 01:31:54;;;;;;;0.50;0.45;;;21.10;56.50;;;;;;5062927;28;20016;-56
2022/06/05 01:34:35;;;;;;;0.60;0.60;;;21.20;56.50;;;;;;5077872;28;20048;-56
2022/06/05 01:37:09;;;;;;;0.60;0.60;;;21.20;56.40;;;;;;5064084;28;20036;-56
2022/06/05 01:39:47;;;;;;;0.50;0.50;;;21.20;56.20;;;;;;5082343;28;20024;-54
2022/06/05 01:42:32;;;;;;;0.57;0.55;;;21.20;56.20;;;;;;5081879;28;20057;-53
2022/06/05 01:45:01;;;;;;;0.73;0.60;;;21.20;56.10;;;;;;5051074;28;20024;-53
2022/06/05 01:47:32;;;;;;;0.60;0.50;;;21.30;56.10;;;;;;5047130;28;20044;-54
2022/06/05 01:50:12;;;;;;;0.43;0.43;;;21.30;56.00;;;;;;5064091;28;20047;-56
2022/06/05 01:53:05;;;;;;;0.68;0.68;;;21.30;55.90;;;;;;5064405;28;20029;-54
2022/06/05 01:56:05;;;;;;;0.60;0.50;;;21.30;55.80;;;;;;5064559;28;20036;-56
2022/06/05 01:59:12;;;;;;;0.90;0.60;;;21.30;55.70;;;;;;4998794;28;20050;-55
2022/06/05 02:01:40;;;;;;;0.60;0.60;;;21.30;55.70;;;;;;4991109;28;20514;-55
2022/06/05 02:04:13;;;;;;;1.73;0.60;;;21.30;55.60;;;;;;4983421;28;20102;-56
2022/06/05 02:06:48;;;;;;;0.60;0.60;;;21.40;55.60;;;;;;4999244;28;20754;-56
2022/06/05 02:09:16;;;;;;;0.60;0.60;;;21.30;55.60;;;;;;4981488;28;20039;-56
2022/06/05 02:11:42;;;;;;;;;;;21.40;55.50;;;;;;4983742;28;20034;-57
2022/06/05 02:14:09;;;;;;;0.75;0.75;;;21.40;55.40;;;;;;4999234;28;19949;-55
2022/06/05 02:16:37;;;;;;;0.55;0.55;;;21.40;55.50;;;;;;4999637;28;20117;-56
2022/06/05 02:19:05;;;;;;;0.50;0.50;;;21.40;55.50;;;;;;4998065;28;20041;-56
2022/06/05 02:21:32;;;;;;;0.68;0.60;;;21.40;55.40;;;;;;4981932;28;20054;-56
2022/06/05 02:23:59;;;;;;;0.60;0.60;;;21.40;55.50;;;;;;4982097;28;20030;-56
2022/06/05 02:26:26;;;;;;;0.60;0.60;;;21.40;55.50;;;;;;4997955;28;20125;-56
2022/06/05 02:28:54;;;;;;;0.63;0.57;;;21.40;55.50;;;;;;4999204;28;20042;-56
2022/06/05 02:31:43;;;;;;;0.60;0.60;;;21.50;55.40;;;;;;4997620;28;20030;-55
2022/06/05 02:34:47;;;;;;;0.45;0.45;;;21.40;55.30;;;;;;5033104;28;20028;-55
2022/06/05 02:37:46;;;;;;;0.85;0.60;;;21.50;55.30;;;;;;5080348;28;20030;-54
2022/06/05 02:40:31;;;;;;;0.60;0.60;;;21.50;55.20;;;;;;5081254;28;20032;-52
2022/06/05 02:43:10;;;;;;;1.20;0.50;;;21.50;55.20;;;;;;5080057;28;20578;-57
2022/06/05 02:45:41;;;;;;;0.60;0.60;;;21.50;55.10;;;;;;5079310;28;20496;-55
2022/06/05 02:48:13;;;;;;;0.77;0.57;;;21.50;55.10;;;;;;5061386;28;20025;-56
2022/06/05 02:50:47;;;;;;;0.60;0.60;;;21.50;55.10;;;;;;5080815;28;20397;-57
2022/06/05 02:53:14;;;;;;;0.50;0.50;;;21.50;55.00;;;;;;5046373;28;20443;-53
2022/06/05 02:55:40;;;;;;;0.93;0.70;;;21.50;54.90;;;;;;5080309;28;20048;-56
2022/06/05 02:58:06;;;;;;;0.70;0.70;;;21.50;55.00;;;;;;5080075;28;20036;-57
2022/06/05 03:00:33;;;;;;;0.60;0.60;;;21.50;55.00;;;;;;5080884;28;20100;-55
2022/06/05 03:05:44;;;;;;;0.63;0.60;;;21.50;54.80;;;;;;5077157;28;20048;-55
2022/06/05 03:08:13;;;;;;;0.88;0.70;;;21.50;54.80;;;;;;5080841;28;20689;-53
2022/06/05 03:10:39;;;;;;;0.47;0.47;;;21.60;54.80;;;;;;5080411;28;20056;-57
2022/06/05 03:13:05;;;;;;;0.60;0.60;;;21.60;54.90;;;;;;5080416;28;20527;-56
2022/06/05 03:15:32;;;;;;;0.57;0.55;;;21.60;54.90;;;;;;5080498;28;20067;-56
2022/06/05 03:17:59;;;;;;;0.50;0.50;;;21.60;54.90;;;;;;5079286;28;20029;-56
2022/06/05 03:20:25;;;;;;;0.40;0.40;;;21.60;54.90;;;;;;5081961;28;20033;-55
2022/06/05 03:22:52;;;;;;;0.68;0.60;;;21.60;54.90;;;;;;5076510;28;20111;-55
2022/06/05 03:25:20;;;;;;;0.68;0.60;;;21.50;54.80;;;;;;5080828;28;20063;-56
2022/06/05 03:27:46;;;;;;;0.60;0.60;;;21.60;54.90;;;;;;5081563;28;20028;-54
2022/06/05 03:30:13;;;;;;;0.40;0.40;;;21.60;54.90;;;;;;5080337;28;20020;-54
2022/06/05 03:32:40;;;;;;;0.70;0.57;;;21.60;54.90;;;;;;5079466;28;20028;-57
2022/06/05 03:35:06;;;;;;;0.77;0.60;;;21.50;54.90;;;;;;5061254;28;20125;-56
2022/06/05 03:37:32;;;;;;;0.60;0.57;;;21.60;54.90;;;;;;5080559;28;20043;-57
2022/06/05 03:39:58;;;;;;;0.52;0.52;;;21.60;55.00;;;;;;5062867;28;20388;-55
2022/06/05 03:42:25;;;;;;;0.60;0.60;;;21.60;55.00;;;;;;5079241;28;20044;-56
2022/06/05 03:44:51;;;;;;;0.43;0.43;;;21.60;55.00;;;;;;5081685;28;20074;-55
2022/06/05 03:47:17;;;;;;;0.55;0.55;;;21.60;55.00;;;;;;5078719;28;20048;-55
2022/06/05 03:49:43;;;;;;;0.63;0.63;;;21.60;55.00;;;;;;5080068;28;20091;-56
2022/06/05 03:52:10;;;;;;;0.50;0.50;;;21.60;55.00;;;;;;5078103;28;20027;-56
2022/06/05 03:54:36;;;;;;;0.57;0.57;;;21.60;55.00;;;;;;5080537;28;20020;-57
2022/06/05 03:57:03;;;;;;;0.50;0.50;;;21.60;55.10;;;;;;5079910;28;20051;-56
2022/06/05 03:59:29;;;;;;;0.60;0.60;;;21.60;55.10;;;;;;5080128;28;20032;-57
2022/06/05 04:01:55;;;;;;;0.70;0.70;;;21.60;55.10;;;;;;5077050;28;20025;-57
2022/06/05 04:04:23;;;;;;;0.63;0.60;;;21.60;55.20;;;;;;5079436;28;20062;-65
2022/06/05 04:06:49;;;;;;;1.05;0.70;;;21.60;55.20;;;;;;5080225;28;20071;-57
2022/06/05 04:09:15;;;;;;;1.42;0.70;;;21.60;55.30;;;;;;5080068;28;20080;-56
2022/06/05 04:11:41;;;;;;;0.80;0.80;;;21.60;55.40;;;;;;5078126;28;20032;-57
2022/06/05 04:14:08;;;;;;;1.00;0.90;;;21.60;55.40;;;;;;5080654;28;20668;-56
2022/06/05 04:16:34;;;;;;;0.80;0.65;;;21.60;55.50;;;;;;5080105;28;20051;-57
2022/06/05 04:19:01;;;;;;;0.73;0.70;;;21.60;55.50;;;;;;5079308;28;20024;-57
2022/06/05 04:21:31;;;;;;;0.73;0.70;;;21.60;55.70;;;;;;5079753;28;20052;-57
2022/06/05 04:23:58;;;;;;;1.15;0.80;;;21.60;55.80;;;;;;5079385;28;20032;-56
2022/06/05 04:26:29;;;;;;;0.70;0.70;;;21.60;55.90;;;;;;5061194;28;20048;-57
2022/06/05 04:28:55;;;;;;;0.70;0.65;;;21.60;56.10;;;;;;5080038;28;20269;-57
2022/06/05 04:31:22;;;;;;;0.85;0.85;;;21.60;56.00;;;;;;5077689;28;20032;-58
2022/06/05 04:33:49;;;;;;;1.52;0.70;;;21.60;56.10;;;;;;5076050;28;20048;-55
2022/06/05 04:36:15;;;;;;;0.77;0.77;;;21.60;56.80;;;;;;5061949;28;20165;-57
2022/06/05 04:38:41;;;;;;;0.95;0.90;;;21.60;56.30;;;;;;5079812;28;21448;-57
2022/06/05 04:41:07;;;;;;;0.80;0.80;;;21.60;56.40;;;;;;5079574;28;20029;-57
2022/06/05 04:43:34;;;;;;;0.95;0.85;;;21.60;56.40;;;;;;5079313;28;20044;-57
2022/06/05 04:46:00;;;;;;;1.00;0.80;;;21.60;56.50;;;;;;5079515;28;20060;-57
2022/06/05 04:48:26;;;;;;;0.70;0.70;;;21.60;56.60;;;;;;5084371;28;20025;-57
2022/06/05 04:50:52;;;;;;;0.70;0.70;;;21.60;56.60;;;;;;5083481;28;20746;-57
2022/06/05 04:53:19;;;;;;;0.70;0.70;;;21.60;56.70;;;;;;5083355;28;20028;-55
2022/06/05 04:55:45;;;;;;;0.70;0.70;;;21.60;56.80;;;;;;5082866;28;20112;-56
2022/06/05 04:58:11;;;;;;;1.23;0.83;;;21.60;56.90;;;;;;5065281;28;20059;-56
2022/06/05 05:00:39;;;;;;;0.80;0.80;;;21.60;56.80;;;;;;5083399;28;20261;-56
2022/06/05 05:03:05;;;;;;;;;;;21.60;56.90;;;;;;5084104;28;20032;-56
2022/06/05 05:05:31;;;;;;;1.90;0.73;;;21.60;57.30;;;;;;5082744;28;19916;-55
2022/06/05 05:07:57;;;;;;;1.65;0.82;;;21.60;57.10;;;;;;5082921;28;20035;-54
2022/06/05 05:10:23;;;;;;;1.08;0.73;;;21.60;57.20;;;;;;5079458;28;20044;-56
2022/06/05 05:12:49;;;;;;;0.73;0.73;;;21.60;57.10;;;;;;5085083;28;20033;-55
2022/06/05 05:15:15;;;;;;;1.17;0.90;;;21.60;57.10;;;;;;5083030;28;20027;-56
2022/06/05 05:17:41;;;;;;;0.95;0.93;;;21.60;57.20;;;;;;5082575;28;20028;-57
2022/06/05 05:20:08;;;;;;;0.85;0.85;;;21.60;57.30;;;;;;5082924;28;20059;-57
2022/06/05 05:22:37;;;;;;;0.80;0.80;;;21.60;57.20;;;;;;5083204;28;20592;-56
2022/06/05 05:25:07;;;;;;;0.98;0.88;;;21.60;57.30;;;;;;5082095;28;20024;-54
2022/06/05 05:27:34;;;;;;;0.80;0.70;;;21.60;57.30;;;;;;5083110;28;20060;-58
2022/06/05 05:30:00;;;;;;;0.80;0.80;;;21.60;57.40;;;;;;5082745;28;20203;-56
2022/06/05 05:32:26;;;;;;;0.95;0.85;;;21.60;57.30;;;;;;5081991;28;20059;-56
2022/06/05 05:34:52;;;;;;;0.85;0.80;;;21.60;57.30;;;;;;5082348;28;20033;-56
2022/06/05 05:37:18;;;;;;;0.80;0.80;;;21.60;57.30;;;;;;5080235;28;20086;-55
2022/06/05 05:42:30;;;;;;;1.08;0.90;;;21.60;57.20;;;;;;5082279;28;20637;-56
2022/06/05 05:44:56;;;;;;;;;;;21.60;57.30;;;;;;5083106;28;20029;-56
2022/06/05 05:47:24;;;;;;;0.80;0.80;;;21.60;57.40;;;;;;5083006;28;19916;-57
2022/06/05 05:49:52;;;;;;;1.08;0.80;;;21.60;57.30;;;;;;5080802;28;20107;-57
2022/06/05 05:52:18;;;;;;;1.00;0.90;;;21.60;57.30;;;;;;5084339;28;20021;-58
2022/06/05 05:54:44;;;;;;;0.90;0.80;;;21.50;57.30;;;;;;5081828;28;20024;-57
2022/06/05 05:57:30;;;;;;;0.90;0.90;;;21.60;57.30;;;;;;5039195;28;20037;-57
2022/06/05 05:59:56;;;;;;;1.70;0.80;;;21.60;57.20;;;;;;5039160;28;20064;-58
2022/06/05 06:02:23;;;;;;;1.00;0.90;;;21.50;57.10;;;;;;5038484;28;20064;-57
2022/06/05 06:04:50;;;;;;;1.10;0.88;;;21.60;57.30;;;;;;5036999;28;20740;-58
2022/06/05 06:07:16;;;;;;;0.95;0.85;;;21.50;57.00;;;;;;5039300;28;20068;-57
2022/06/05 06:09:42;;;;;;;0.93;0.88;;;21.50;57.10;;;;;;5037484;28;20033;-57
2022/06/05 06:12:09;;;;;;;1.30;0.90;;;21.50;57.10;;;;;;5039075;28;20092;-56
2022/06/05 06:14:36;;;;;;;1.08;0.98;;;21.50;57.00;;;;;;5038226;28;20038;-57
2022/06/05 06:17:02;;;;;;;0.83;0.83;;;21.50;57.20;;;;;;5038893;28;20148;-57
2022/06/05 06:19:28;;;;;;;1.00;0.80;;;21.50;57.20;;;;;;5039066;28;20018;-57
2022/06/05 06:21:54;;;;;;;1.35;1.00;;;21.50;57.20;;;;;;5038795;28;20041;-58
2022/06/05 06:24:20;;;;;;;0.88;0.80;;;21.50;57.10;;;;;;5038767;28;20030;-57
2022/06/05 06:26:46;;;;;;;0.93;0.90;;;21.50;57.00;;;;;;5038423;28;20041;-58
2022/06/05 06:29:12;;;;;;;1.00;0.90;;;21.50;57.10;;;;;;5039070;28;20029;-57
2022/06/05 06:31:39;;;;;;;1.17;1.08;;;21.50;57.20;;;;;;5020408;28;20104;-58
2022/06/05 06:34:05;;;;;;;1.02;0.98;;;21.50;57.30;;;;;;5050290;28;20025;-57
2022/06/05 06:36:32;;;;;;;0.87;0.83;;;21.50;57.30;;;;;;5081116;28;20032;-57
2022/06/05 06:38:59;;;;;;;0.90;0.90;;;21.50;57.30;;;;;;5078978;28;20289;-56
2022/06/05 06:41:25;;;;;;;0.82;0.82;;;21.50;57.30;;;;;;5081285;28;20033;-57
2022/06/05 06:43:52;;;;;;;1.00;0.98;;;21.50;57.30;;;;;;5081440;28;20040;-56
2022/06/05 06:46:18;;;;;;;0.90;0.90;;;21.50;57.30;;;;;;5080267;28;20055;-57
2022/06/05 06:48:44;;;;;;;0.87;0.87;;;21.40;57.30;;;;;;5081308;28;20021;-58
2022/06/05 06:51:10;;;;;;;0.57;0.57;;;21.40;57.30;;;;;;5080949;28;20092;-56
2022/06/05 06:53:37;;;;;;;1.00;0.90;;;21.40;57.40;;;;;;5080713;28;20069;-57
2022/06/05 06:56:17;;;;;;;0.82;0.80;;;21.40;57.30;;;;;;5080839;28;20032;-58
2022/06/05 06:58:44;;;;;;;1.00;0.90;;;21.40;57.30;;;;;;5081149;28;20032;-57
2022/06/05 07:01:30;;;;;;;0.98;0.77;;;21.40;57.30;;;;;;5080306;28;20056;-58
2022/06/05 07:03:56;;;;;;;1.55;0.95;;;21.40;57.40;;;;;;4998703;28;20177;-56
2022/06/05 07:06:22;;;;;;;1.58;0.77;;;21.40;57.40;;;;;;4981903;28;20113;-55
2022/06/05 07:08:52;;;;;;;0.95;0.90;;;21.40;57.40;;;;;;5000951;28;20049;-58
2022/06/05 07:11:18;;;;;;;1.25;0.90;;;21.40;57.30;;;;;;4999182;28;20049;-58
2022/06/05 07:13:44;;;;;;;1.00;0.90;;;21.40;57.30;;;;;;4998204;28;20022;-58
2022/06/05 07:16:10;;;;;;;1.27;0.93;;;21.40;57.40;;;;;;4997781;28;20098;-57
2022/06/05 07:18:37;;;;;;;1.00;0.90;;;21.40;57.50;;;;;;4998811;28;20026;-56
2022/06/05 07:21:08;;;;;;;1.00;0.90;;;21.40;57.50;;;;;;4998248;28;20058;-56
2022/06/05 07:23:34;;;;;;;1.20;1.10;;;21.40;57.40;;;;;;5000715;28;20296;-58
2022/06/05 07:26:00;;;;;;;1.20;1.10;;;21.40;57.50;;;;;;5000212;28;20034;-57
2022/06/05 07:28:26;;;;;;;1.20;0.82;;;21.40;57.50;;;;;;5000982;28;20041;-58
2022/06/05 07:30:52;;;;;;;1.33;1.23;;;21.40;57.40;;;;;;5020009;28;20125;-58
2022/06/05 07:33:18;;;;;;;1.00;0.90;;;21.30;57.40;;;;;;5001138;28;20040;-57
2022/06/05 07:35:44;;;;;;;1.00;0.93;;;21.30;57.30;;;;;;4999947;28;20034;-58
2022/06/05 07:38:11;;;;;;;1.00;1.00;;;21.30;57.40;;;;;;5000344;28;20034;-58
2022/06/05 07:40:39;;;;;;;1.10;1.00;;;21.30;57.40;;;;;;5027092;28;20032;-58
2022/06/05 07:43:05;;;;;;;0.98;0.90;;;21.30;57.40;;;;;;5082470;28;20055;-58
2022/06/05 07:45:31;;;;;;;1.40;1.00;;;21.30;57.50;;;;;;5084453;28;20035;-58
2022/06/05 07:47:57;;;;;;;1.20;1.10;;;21.30;57.40;;;;;;5082091;28;20078;-58
2022/06/05 07:50:23;;;;;;;1.25;1.15;;;21.30;57.50;;;;;;5082415;28;20016;-56
2022/06/05 07:55:34;;;;;;;0.90;0.85;;;21.30;57.40;;;;;;5082325;28;20051;-58
2022/06/05 07:58:00;;;;;;;0.70;0.70;;;21.30;57.40;;;;;;5081881;28;20033;-58
2022/06/05 08:00:27;;;;;;;1.10;1.00;;;21.30;57.30;;;;;;5082046;28;20044;-57
2022/06/05 08:02:53;;;;;;;1.00;0.95;;;21.30;57.40;;;;;;5068132;28;20040;-57
2022/06/05 08:05:19;;;;;;;0.90;0.90;;;21.30;57.30;;;;;;5090740;28;20032;-58
2022/06/05 08:07:45;;;;;;;1.40;1.00;;;21.30;57.40;;;;;;5102375;28;20028;-58
2022/06/05 08:10:11;;;;;;;1.40;1.00;;;21.30;57.40;;;;;;5102424;28;20050;-55
2022/06/05 08:12:37;;;;;;;0.80;0.80;;;21.30;57.40;;;;;;5101966;28;20028;-58
2022/06/05 08:15:24;;;;;;;1.48;1.00;;;21.20;57.40;;;;;;5039445;28;20048;-58
2022/06/05 08:17:50;;;;;;;1.02;0.93;;;21.20;57.40;;;;;;5035078;28;20038;-57
2022/06/05 08:20:17;;;;;;;1.00;0.90;;;21.20;57.40;;;;;;5019500;28;20082;-58
2022/06/05 08:22:43;;;;;;;1.02;0.93;;;21.20;57.40;;;;;;5022098;28;20046;-58
2022/06/05 08:25:09;;;;;;;1.10;1.00;;;21.20;57.40;;;;;;5023271;28;20029;-57
2022/06/05 08:27:35;;;;;;;1.10;1.00;;;21.20;58.00;;;;;;5030804;28;20088;-60
2022/06/05 08:30:01;;;;;;;1.55;1.00;;;21.20;57.40;;;;;;5043279;28;20098;-58
2022/06/05 08:32:28;;;;;;;1.83;1.00;;;21.20;57.40;;;;;;5020071;28;20052;-58
2022/06/05 08:34:54;;;;;;;1.40;1.02;;;21.20;57.50;;;;;;5021165;28;20026;-58
2022/06/05 08:43:07;;;;;;;0.98;0.98;;;21.20;57.50;;;;;;5022576;28;20104;-58
2022/06/05 08:45:47;;;;;;;0.98;0.90;;;21.20;57.60;;;;;;5006697;28;20046;-58
2022/06/05 08:48:37;;;;;;;2.05;1.02;;;21.20;57.60;;;;;;5022959;28;20041;-58
2022/06/05 08:51:44;;;;;;;1.10;1.00;;;21.20;57.60;;;;;;5020982;28;20053;-58
2022/06/05 08:54:14;;;;;;;1.05;0.95;;;21.20;57.60;;;;;;5020413;28;20049;-58
2022/06/05 08:56:48;;;;;;;1.27;1.17;;;21.10;57.50;;;;;;5005062;28;20030;-58
2022/06/05 08:59:17;;;;;;;1.35;1.00;;;21.10;57.60;;;;;;5004920;28;20064;-57
2022/06/05 09:02:00;;;;;;;1.15;1.00;;;21.10;57.60;;;;;;5020322;28;20104;-58
2022/06/05 09:04:33;;;;;;;1.23;1.00;;;21.10;57.50;;;;;;5019287;28;20052;-58
2022/06/05 09:07:02;;;;;;;2.67;1.10;;;21.10;57.60;;;;;;5020366;28;20038;-57
2022/06/05 09:09:46;;;;;;;1.38;1.02;;;21.10;57.60;;;;;;4988501;28;20030;-58
2022/06/05 09:12:38;;;;;;;1.30;1.10;;;21.10;57.60;;;;;;4989454;28;20064;-58
2022/06/05 09:15:18;;;;;;;1.70;1.00;;;21.10;57.60;;;;;;5006861;28;20030;-58
2022/06/05 09:17:58;;;;;;;0.93;0.93;;;21.10;57.70;;;;;;5004293;28;20076;-59
2022/06/05 09:20:55;;;;;;;1.20;1.05;;;21.10;57.70;;;;;;5019684;28;20029;-57
2022/06/05 09:23:34;;;;;;;2.65;1.20;;;21.10;57.70;;;;;;5010393;28;20057;-58
2022/06/05 09:26:33;;;;;;;1.17;1.00;;;21.10;57.70;;;;;;5002461;28;20052;-58
2022/06/05 09:29:04;;;;;;;1.05;0.93;;;21.10;57.80;;;;;;5028002;28;20028;-58
2022/06/05 09:31:53;;;;;;;1.42;1.13;;;21.00;57.80;;;;;;5082479;28;20029;-58
2022/06/05 09:34:53;;;;;;;1.20;1.10;;;21.10;57.90;;;;;;5081456;28;20064;-58
2022/06/05 09:37:29;;;;;;;1.13;0.90;;;21.00;57.80;;;;;;5082849;28;20036;-57
2022/06/05 09:40:13;;;;;;;0.85;0.85;;;21.00;57.80;;;;;;5064398;28;20028;-58
2022/06/05 09:43:03;;;;;;;1.42;1.30;;;21.00;57.90;;;;;;5080119;28;20036;-58
2022/06/05 09:45:45;;;;;;;1.10;1.00;;;21.00;57.90;;;;;;5068411;28;20036;-59
2022/06/05 09:48:37;;;;;;;1.17;1.08;;;21.00;57.90;;;;;;5082817;28;20646;-58
2022/06/05 09:51:09;;;;;;;1.27;1.00;;;21.00;57.90;;;;;;5066561;28;20032;-59
2022/06/05 09:54:06;;;;;;;2.53;1.45;;;21.00;57.90;;;;;;5079624;28;20021;-58
2022/06/05 09:59:34;;;;;;;1.17;1.08;;;21.00;58.00;;;;;;5081657;28;20043;-57
2022/06/05 10:02:01;;;;;;;1.70;1.00;;;21.00;58.00;;;;;;5082378;28;20024;-58
2022/06/05 10:04:29;;;;;;;0.50;0.50;;;21.00;58.00;;;;;;5063116;28;20033;-58
2022/06/05 10:06:57;;;;;;;1.20;1.10;;;20.90;58.00;;;;;;5082034;28;20155;-58
2022/06/05 10:09:25;;;;;;;1.25;1.15;;;20.90;58.00;;;;;;5064593;28;20078;-58
2022/06/05 10:12:12;;;;;;;1.23;1.13;;;20.90;58.20;;;;;;5064219;28;20029;-58
2022/06/05 10:14:47;;;;;;;1.20;1.10;;;20.90;58.00;;;;;;5062208;28;20059;-58
2022/06/05 10:17:36;;;;;;;1.10;0.80;;;20.90;58.20;;;;;;5082162;28;20032;-57
2022/06/05 10:20:16;;;;;;;1.10;1.05;;;20.90;58.10;;;;;;5066191;28;20052;-59
2022/06/05 10:22:46;;;;;;;1.50;1.40;;;20.90;58.10;;;;;;5078385;28;20052;-57
2022/06/05 10:25:12;;;;;;;1.02;1.00;;;20.90;58.20;;;;;;5063720;28;20056;-58
2022/06/05 10:27:39;;;;;;;1.48;1.10;;;20.90;58.20;;;;;;5081178;28;20046;-58
2022/06/05 10:30:06;;;;;;;1.27;1.17;;;20.90;58.20;;;;;;5063226;28;20089;-57
2022/06/05 10:32:40;;;;;;;1.42;1.33;;;20.90;58.20;;;;;;5080671;28;20033;-56
2022/06/05 10:35:47;;;;;;;2.35;1.30;;;20.90;58.30;;;;;;5063546;28;20059;-56
2022/06/05 10:38:37;;;;;;;1.90;1.30;;;20.90;58.30;;;;;;5061699;28;20127;-59
2022/06/05 10:41:15;;;;;;;1.20;1.10;;;20.90;58.30;;;;;;5047163;28;20031;-58
2022/06/05 10:43:41;;;;;;;1.05;1.00;;;20.90;58.80;;;;;;5061545;28;20025;-57
2022/06/05 10:46:18;;;;;;;1.15;1.05;;;20.90;58.30;;;;;;5046078;28;20033;-58
2022/06/05 10:48:50;;;;;;;1.23;1.00;;;20.90;58.30;;;;;;5047319;28;20035;-58
2022/06/05 10:51:19;;;;;;;1.38;1.27;;;20.90;58.40;;;;;;5081048;28;20025;-59
2022/06/05 10:53:53;;;;;;;1.30;1.08;;;20.90;58.40;;;;;;5078468;28;20085;-57
2022/06/05 10:56:46;;;;;;;2.00;1.10;;;20.80;58.40;;;;;;5079125;28;20032;-57
2022/06/05 10:59:16;;;;;;;1.40;1.30;;;20.90;58.40;;;;;;5082350;28;20036;-58
2022/06/05 11:01:48;;;;;;;1.55;1.20;;;20.80;58.40;;;;;;5080881;28;20054;-58
2022/06/05 11:04:33;;;;;;;1.38;1.25;;;20.80;58.40;;;;;;5079754;28;20039;-57
2022/06/05 11:07:02;;;;;;;3.08;1.27;;;20.80;58.30;;;;;;5080709;28;20036;-58
2022/06/05 11:09:51;;;;;;;1.42;1.33;;;20.80;58.50;;;;;;5063800;28;20024;-58
2022/06/05 11:15:40;;;;;;;1.20;1.10;;;20.80;58.70;;;;;;5066785;28;20456;-58
2022/06/05 11:18:24;;;;;;;1.50;1.40;;;20.80;58.50;;;;;;5081970;28;20500;-57
2022/06/05 11:20:58;;;;;;;1.48;1.38;;;20.80;58.60;;;;;;5063585;28;20029;-57
2022/06/05 11:23:27;;;;;;;1.10;1.08;;;20.80;58.50;;;;;;5061116;28;20052;-58
2022/06/05 11:25:54;;;;;;;1.27;1.17;;;20.80;58.50;;;;;;5080497;28;20032;-57
2022/06/05 11:28:42;;;;;;;1.42;1.33;;;20.80;58.60;;;;;;5080444;28;20028;-58
2022/06/05 11:31:13;;;;;;;1.58;1.38;;;20.80;58.50;;;;;;5077731;28;20088;-57
2022/06/05 11:33:54;;;;;;;1.30;1.20;;;20.80;58.60;;;;;;5060433;28;20564;-58
2022/06/05 11:36:24;;;;;;;1.52;1.27;;;20.80;58.70;;;;;;5062774;28;20096;-58
2022/06/05 11:39:02;;;;;;;1.27;1.17;;;20.80;58.70;;;;;;5080423;28;20032;-57
2022/06/05 11:41:41;;;;;;;1.30;1.10;;;20.80;58.70;;;;;;5063485;28;20028;-58
2022/06/05 11:44:27;;;;;;;1.40;1.25;;;20.70;58.60;;;;;;5059035;28;20048;-57
2022/06/05 11:47:10;;;;;;;2.17;1.25;;;20.70;58.70;;;;;;5062731;28;20040;-57
2022/06/05 11:49:39;;;;;;;1.38;1.27;;;20.70;58.70;;;;;;5079450;28;20509;-57
2022/06/05 11:52:08;;;;;;;1.40;1.08;;;20.70;58.60;;;;;;5077598;28;20032;-58
2022/06/05 11:54:41;;;;;;;1.30;1.20;;;20.70;58.70;;;;;;5058381;28;20084;-59
2022/06/05 11:57:43;;;;;;;1.40;1.30;;;20.70;59.10;;;;;;5078562;28;20046;-57
2022/06/05 12:00:15;;;;;;;1.45;1.33;;;20.70;58.80;;;;;;5063979;28;20033;-58
2022/06/05 12:03:10;;;;;;;1.80;1.50;;;20.70;58.70;;;;;;5049247;28;20033;-58
2022/06/05 12:05:42;;;;;;;1.27;1.17;;;20.70;58.80;;;;;;5065985;28;20035;-57
2022/06/05 12:08:14;;;;;;;1.40;1.30;;;20.70;58.80;;;;;;5081112;28;20245;-58
2022/06/05 12:10:51;;;;;;;0.90;0.90;;;20.70;58.80;;;;;;5065761;28;20389;-57
2022/06/05 12:13:23;;;;;;;;;;;20.70;58.80;;;;;;5048574;28;20040;-56
2022/06/05 12:16:11;;;;;;;1.60;1.27;;;20.70;58.80;;;;;;5083472;28;19968;-57
2022/06/05 12:18:47;;;;;;;1.33;1.23;;;20.70;58.80;;;;;;5049451;28;20037;-58
2022/06/05 12:21:38;;;;;;;1.00;1.00;;;20.70;58.80;;;;;;5059591;28;20436;-56
2022/06/05 12:24:16;;;;;;;1.80;1.30;;;20.60;58.60;;;;;;5053637;28;20037;-58
2022/06/05 12:26:48;;;;;;;;;;;20.70;58.70;;;;;;5061348;28;20033;-58
2022/06/05 12:29:35;;;;;;;1.50;1.40;;;20.70;58.70;;;;;;5059836;28;20084;-56
2022/06/05 12:32:23;;;;;;;2.92;1.30;;;20.60;58.60;;;;;;5060976;28;20024;-58
2022/06/05 12:35:02;;;;;;;1.42;1.33;;;20.60;58.70;;;;;;5060607;28;20553;-57
2022/06/05 12:37:36;;;;;;;1.38;1.25;;;20.60;58.90;;;;;;5062029;28;20037;-57
2022/06/05 12:40:03;;;;;;;1.58;1.30;;;20.60;58.90;;;;;;5064173;28;20056;-58
2022/06/05 12:42:39;;;;;;;1.08;1.02;;;20.60;58.90;;;;;;5049497;28;20584;-58
2022/06/05 12:45:26;;;;;;;1.27;1.17;;;20.60;58.80;;;;;;5050688;28;20032;-58
2022/06/05 12:48:04;;;;;;;1.30;1.20;;;20.60;58.90;;;;;;5065005;28;20041;-55
2022/06/05 12:50:38;;;;;;;1.42;1.30;;;20.60;58.90;;;;;;5051927;28;20035;-57
2022/06/05 12:53:27;;;;;;;1.30;1.20;;;20.60;58.90;;;;;;5045263;28;20028;-57
2022/06/05 12:56:14;;;;;;;1.42;1.33;;;20.60;58.90;;;;;;5045130;28;20037;-58
2022/06/05 12:59:13;;;;;;;1.30;1.20;;;20.60;59.00;;;;;;5045062;28;20180;-55
2022/06/05 13:01:57;;;;;;;1.43;1.10;;;20.60;59.10;;;;;;5025524;28;20041;-56
2022/06/05 13:04:47;;;;;;;1.40;1.30;;;20.60;59.10;;;;;;5060589;28;20044;-57
2022/06/05 13:07:49;;;;;;;1.27;1.17;;;20.60;59.20;;;;;;5067446;28;20501;-58
2022/06/05 13:10:35;;;;;;;1.20;1.10;;;20.60;59.20;;;;;;5054228;28;20033;-58
2022/06/05 13:13:19;;;;;;;1.30;1.20;;;20.60;59.10;;;;;;5048246;28;20029;-58
2022/06/05 13:15:58;;;;;;;1.40;1.30;;;20.60;59.10;;;;;;5072880;28;20058;-54
2022/06/05 13:19:00;;;;;;;1.40;1.30;;;20.60;59.10;;;;;;5071939;28;20025;-58
2022/06/05 13:21:29;;;;;;;1.40;1.27;;;20.70;59.20;;;;;;5005152;28;20069;-55
2022/06/05 13:24:16;;;;;;;1.27;1.17;;;20.70;59.30;;;;;;5003477;28;20049;-58
2022/06/05 13:27:04;;;;;;;1.33;1.23;;;20.70;59.30;;;;;;5009005;28;20069;-56
2022/06/05 13:29:38;;;;;;;1.35;1.25;;;20.70;59.40;;;;;;4987664;28;20026;-57
2022/06/05 13:32:15;;;;;;;1.50;1.40;;;20.70;59.60;;;;;;4983775;28;20039;-57
2022/06/05 13:34:44;;;;;;;1.73;1.30;;;20.70;59.70;;;;;;4983043;28;20096;-57
2022/06/05 13:37:20;;;;;;;1.50;1.40;;;20.70;59.80;;;;;;5000295;28;20022;-57
2022/06/05 13:39:55;;;;;;;1.50;1.40;;;20.70;60.70;;;;;;5014464;28;20038;-56
2022/06/05 13:42:22;;;;;;;1.35;1.23;;;20.70;60.10;;;;;;5002004;28;20073;-56